sensor_id;sensor_type;location;lat;lon;timestamp;P1;durP1;ratioP1;P2;durP2;ratioP2
36547;SDS011;22551;52.206;4.856;2023-04-24T00:02:21;0.98;;;0.50;;
36547;SDS011;22551;52.206;4.856;2023-04-24T00:07:24;0.40;;;0.20;;
36547;SDS011;22551;52.206;4.856;2023-04-24T00:12:27;1.95;;;0.20;;
36547;SDS011;22551;52.206;4.856;2023-04-24T00:17:30;0.95;;;0.20;;
36547;SDS011;22551;52.206;4.856;2023-04-24T00:22:32;1.50;;;0.30;;
36547;SDS011;22551;52.206;4.856;2023-04-24T00:27:36;1.05;;;0.38;;
36547;SDS011;22551;52.206;4.856;2023-04-24T00:32:38;1.05;;;0.43;;
36547;SDS011;22551;52.206;4.856;2023-04-24T00:37:40;0.30;;;0.30;;
36547;SDS011;22551;52.206;4.856;2023-04-24T00:42:44;0.50;;;0.20;;
36547;SDS011;22551;52.206;4.856;2023-04-24T00:47:47;1.33;;;0.08;;
36547;SDS011;22551;52.206;4.856;2023-04-24T00:52:50;1.48;;;0.20;;
36547;SDS011;22551;52.206;4.856;2023-04-24T00:57:54;0.47;;;0.10;;
36547;SDS011;22551;52.206;4.856;2023-04-24T01:02:57;1.55;;;0.40;;
36547;SDS011;22551;52.206;4.856;2023-04-24T01:08:00;2.28;;;0.68;;
36547;SDS011;22551;52.206;4.856;2023-04-24T01:13:06;2.67;;;1.38;;
36547;SDS011;22551;52.206;4.856;2023-04-24T01:18:09;3.42;;;0.60;;
36547;SDS011;22551;52.206;4.856;2023-04-24T01:23:13;1.48;;;0.82;;
36547;SDS011;22551;52.206;4.856;2023-04-24T01:28:15;2.88;;;0.60;;
36547;SDS011;22551;52.206;4.856;2023-04-24T01:33:18;1.15;;;0.60;;
36547;SDS011;22551;52.206;4.856;2023-04-24T01:38:23;3.10;;;0.50;;
36547;SDS011;22551;52.206;4.856;2023-04-24T01:43:25;1.63;;;0.47;;
36547;SDS011;22551;52.206;4.856;2023-04-24T01:48:28;0.93;;;0.40;;
36547;SDS011;22551;52.206;4.856;2023-04-24T01:53:32;0.88;;;0.45;;
36547;SDS011;22551;52.206;4.856;2023-04-24T01:58:35;1.25;;;0.40;;
36547;SDS011;22551;52.206;4.856;2023-04-24T02:03:37;0.98;;;0.30;;
36547;SDS011;22551;52.206;4.856;2023-04-24T02:08:42;1.23;;;0.50;;
36547;SDS011;22551;52.206;4.856;2023-04-24T02:13:45;2.55;;;0.60;;
36547;SDS011;22551;52.206;4.856;2023-04-24T02:18:47;3.03;;;0.80;;
36547;SDS011;22551;52.206;4.856;2023-04-24T02:23:50;1.80;;;0.80;;
36547;SDS011;22551;52.206;4.856;2023-04-24T02:28:53;1.95;;;0.93;;
36547;SDS011;22551;52.206;4.856;2023-04-24T02:33:55;0.85;;;0.75;;
36547;SDS011;22551;52.206;4.856;2023-04-24T02:38:58;2.25;;;0.90;;
36547;SDS011;22551;52.206;4.856;2023-04-24T02:44:01;1.15;;;0.70;;
36547;SDS011;22551;52.206;4.856;2023-04-24T02:49:03;0.95;;;0.65;;
36547;SDS011;22551;52.206;4.856;2023-04-24T02:54:06;1.20;;;0.95;;
36547;SDS011;22551;52.206;4.856;2023-04-24T02:59:09;1.63;;;0.90;;
36547;SDS011;22551;52.206;4.856;2023-04-24T03:04:11;3.50;;;0.98;;
36547;SDS011;22551;52.206;4.856;2023-04-24T03:09:15;2.75;;;1.30;;
36547;SDS011;22551;52.206;4.856;2023-04-24T03:14:17;3.33;;;1.00;;
36547;SDS011;22551;52.206;4.856;2023-04-24T03:19:19;2.78;;;1.27;;
36547;SDS011;22551;52.206;4.856;2023-04-24T03:24:23;2.83;;;0.90;;
36547;SDS011;22551;52.206;4.856;2023-04-24T03:29:28;5.22;;;1.10;;
36547;SDS011;22551;52.206;4.856;2023-04-24T03:34:30;4.85;;;1.00;;
36547;SDS011;22551;52.206;4.856;2023-04-24T03:39:34;3.08;;;0.95;;
36547;SDS011;22551;52.206;4.856;2023-04-24T03:44:36;3.03;;;1.20;;
36547;SDS011;22551;52.206;4.856;2023-04-24T03:49:38;1.50;;;1.40;;
36547;SDS011;22551;52.206;4.856;2023-04-24T03:54:42;4.18;;;1.23;;
36547;SDS011;22551;52.206;4.856;2023-04-24T03:59:44;2.53;;;1.10;;
36547;SDS011;22551;52.206;4.856;2023-04-24T04:04:46;2.47;;;1.17;;
36547;SDS011;22551;52.206;4.856;2023-04-24T04:09:49;5.47;;;0.40;;
36547;SDS011;22551;52.206;4.856;2023-04-24T04:14:53;0.93;;;0.40;;
36547;SDS011;22551;52.206;4.856;2023-04-24T04:19:55;0.75;;;0.40;;
36547;SDS011;22551;52.206;4.856;2023-04-24T04:24:59;1.40;;;0.30;;
36547;SDS011;22551;52.206;4.856;2023-04-24T04:30:01;0.55;;;0.30;;
36547;SDS011;22551;52.206;4.856;2023-04-24T04:35:06;0.20;;;0.13;;
36547;SDS011;22551;52.206;4.856;2023-04-24T04:40:11;0.30;;;0.10;;
36547;SDS011;22551;52.206;4.856;2023-04-24T04:45:13;0.70;;;0.10;;
36547;SDS011;22551;52.206;4.856;2023-04-24T04:50:17;1.20;;;0.25;;
36547;SDS011;22551;52.206;4.856;2023-04-24T04:55:21;0.95;;;0.20;;
36547;SDS011;22551;52.206;4.856;2023-04-24T05:00:23;0.47;;;0.20;;
36547;SDS011;22551;52.206;4.856;2023-04-24T05:05:25;0.28;;;0.20;;
36547;SDS011;22551;52.206;4.856;2023-04-24T05:10:31;2.67;;;0.20;;
36547;SDS011;22551;52.206;4.856;2023-04-24T05:15:33;0.45;;;0.30;;
36547;SDS011;22551;52.206;4.856;2023-04-24T05:20:35;0.40;;;0.10;;
36547;SDS011;22551;52.206;4.856;2023-04-24T05:25:39;1.20;;;0.30;;
36547;SDS011;22551;52.206;4.856;2023-04-24T05:30:42;0.73;;;0.60;;
36547;SDS011;22551;52.206;4.856;2023-04-24T05:35:45;4.43;;;2.95;;
36547;SDS011;22551;52.206;4.856;2023-04-24T05:40:49;8.32;;;4.22;;
36547;SDS011;22551;52.206;4.856;2023-04-24T05:45:51;14.75;;;5.82;;
36547;SDS011;22551;52.206;4.856;2023-04-24T05:50:53;10.13;;;5.88;;
36547;SDS011;22551;52.206;4.856;2023-04-24T05:55:57;20.58;;;6.88;;
36547;SDS011;22551;52.206;4.856;2023-04-24T06:00:59;12.75;;;7.15;;
36547;SDS011;22551;52.206;4.856;2023-04-24T06:06:02;16.42;;;8.20;;
36547;SDS011;22551;52.206;4.856;2023-04-24T06:11:06;21.17;;;8.05;;
36547;SDS011;22551;52.206;4.856;2023-04-24T06:16:08;17.23;;;7.53;;
36547;SDS011;22551;52.206;4.856;2023-04-24T06:21:11;24.00;;;6.75;;
36547;SDS011;22551;52.206;4.856;2023-04-24T06:26:16;14.30;;;7.13;;
36547;SDS011;22551;52.206;4.856;2023-04-24T06:31:19;12.77;;;6.03;;
36547;SDS011;22551;52.206;4.856;2023-04-24T06:36:21;19.48;;;5.78;;
36547;SDS011;22551;52.206;4.856;2023-04-24T06:41:25;11.82;;;5.85;;
36547;SDS011;22551;52.206;4.856;2023-04-24T06:46:27;12.57;;;4.88;;
36547;SDS011;22551;52.206;4.856;2023-04-24T06:51:29;25.52;;;5.57;;
36547;SDS011;22551;52.206;4.856;2023-04-24T06:56:34;20.70;;;5.65;;
36547;SDS011;22551;52.206;4.856;2023-04-24T07:01:36;13.68;;;4.88;;
36547;SDS011;22551;52.206;4.856;2023-04-24T07:06:38;18.67;;;5.25;;
36547;SDS011;22551;52.206;4.856;2023-04-24T07:11:42;20.52;;;5.25;;
36547;SDS011;22551;52.206;4.856;2023-04-24T07:16:44;12.35;;;4.13;;
36547;SDS011;22551;52.206;4.856;2023-04-24T07:21:47;16.92;;;4.50;;
36547;SDS011;22551;52.206;4.856;2023-04-24T07:26:51;20.50;;;3.95;;
36547;SDS011;22551;52.206;4.856;2023-04-24T07:31:55;16.42;;;3.10;;
36547;SDS011;22551;52.206;4.856;2023-04-24T07:36:57;9.88;;;3.25;;
36547;SDS011;22551;52.206;4.856;2023-04-24T07:42:01;14.77;;;2.20;;
36547;SDS011;22551;52.206;4.856;2023-04-24T07:47:03;22.48;;;3.67;;
36547;SDS011;22551;52.206;4.856;2023-04-24T07:52:06;9.95;;;2.05;;
36547;SDS011;22551;52.206;4.856;2023-04-24T07:57:09;11.70;;;1.58;;
36547;SDS011;22551;52.206;4.856;2023-04-24T08:02:11;10.23;;;1.60;;
36547;SDS011;22551;52.206;4.856;2023-04-24T08:07:14;6.63;;;1.67;;
36547;SDS011;22551;52.206;4.856;2023-04-24T08:12:18;12.65;;;2.13;;
36547;SDS011;22551;52.206;4.856;2023-04-24T08:17:20;7.63;;;1.55;;
36547;SDS011;22551;52.206;4.856;2023-04-24T08:22:22;11.75;;;1.90;;
36547;SDS011;22551;52.206;4.856;2023-04-24T08:27:26;11.93;;;1.70;;
36547;SDS011;22551;52.206;4.856;2023-04-24T08:32:29;12.43;;;1.93;;
36547;SDS011;22551;52.206;4.856;2023-04-24T08:37:31;7.60;;;1.63;;
36547;SDS011;22551;52.206;4.856;2023-04-24T08:42:35;9.90;;;2.17;;
36547;SDS011;22551;52.206;4.856;2023-04-24T08:47:40;9.10;;;1.85;;
36547;SDS011;22551;52.206;4.856;2023-04-24T08:52:42;8.52;;;2.25;;
36547;SDS011;22551;52.206;4.856;2023-04-24T08:57:46;12.45;;;2.03;;
36547;SDS011;22551;52.206;4.856;2023-04-24T09:02:54;5.45;;;1.48;;
36547;SDS011;22551;52.206;4.856;2023-04-24T09:07:57;7.78;;;1.50;;
36547;SDS011;22551;52.206;4.856;2023-04-24T09:13:02;6.10;;;1.20;;
36547;SDS011;22551;52.206;4.856;2023-04-24T09:18:04;1.65;;;0.65;;
36547;SDS011;22551;52.206;4.856;2023-04-24T09:23:06;4.75;;;1.25;;
36547;SDS011;22551;52.206;4.856;2023-04-24T09:28:17;8.18;;;1.23;;
36547;SDS011;22551;52.206;4.856;2023-04-24T09:33:19;6.82;;;1.10;;
36547;SDS011;22551;52.206;4.856;2023-04-24T09:38:30;9.65;;;1.73;;
36547;SDS011;22551;52.206;4.856;2023-04-24T09:43:34;4.32;;;0.50;;
36547;SDS011;22551;52.206;4.856;2023-04-24T09:48:37;2.30;;;0.30;;
36547;SDS011;22551;52.206;4.856;2023-04-24T09:53:39;3.28;;;0.30;;
36547;SDS011;22551;52.206;4.856;2023-04-24T09:58:47;1.60;;;0.45;;
36547;SDS011;22551;52.206;4.856;2023-04-24T10:03:49;2.38;;;0.30;;
36547;SDS011;22551;52.206;4.856;2023-04-24T10:08:53;3.58;;;0.40;;
36547;SDS011;22551;52.206;4.856;2023-04-24T10:13:57;5.90;;;0.95;;
36547;SDS011;22551;52.206;4.856;2023-04-24T10:19:02;2.30;;;0.32;;
36547;SDS011;22551;52.206;4.856;2023-04-24T10:29:09;5.25;;;0.60;;
36547;SDS011;22551;52.206;4.856;2023-04-24T10:34:14;8.13;;;0.70;;
36547;SDS011;22551;52.206;4.856;2023-04-24T10:39:18;5.30;;;1.00;;
36547;SDS011;22551;52.206;4.856;2023-04-24T10:44:25;4.25;;;0.82;;
36547;SDS011;22551;52.206;4.856;2023-04-24T10:49:37;1.42;;;0.47;;
36547;SDS011;22551;52.206;4.856;2023-04-24T10:54:44;2.95;;;0.40;;
36547;SDS011;22551;52.206;4.856;2023-04-24T10:59:49;0.80;;;0.13;;
36547;SDS011;22551;52.206;4.856;2023-04-24T11:04:53;4.65;;;0.22;;
36547;SDS011;22551;52.206;4.856;2023-04-24T11:09:57;6.10;;;1.05;;
36547;SDS011;22551;52.206;4.856;2023-04-24T11:15:02;2.33;;;0.32;;
36547;SDS011;22551;52.206;4.856;2023-04-24T11:20:15;4.80;;;0.47;;
36547;SDS011;22551;52.206;4.856;2023-04-24T11:25:20;1.67;;;0.47;;
36547;SDS011;22551;52.206;4.856;2023-04-24T11:30:25;5.50;;;0.77;;
36547;SDS011;22551;52.206;4.856;2023-04-24T11:35:35;3.22;;;0.52;;
36547;SDS011;22551;52.206;4.856;2023-04-24T11:40:41;8.00;;;0.90;;
36547;SDS011;22551;52.206;4.856;2023-04-24T11:45:48;1.55;;;0.50;;
36547;SDS011;22551;52.206;4.856;2023-04-24T11:50:51;5.75;;;0.65;;
36547;SDS011;22551;52.206;4.856;2023-04-24T12:00:59;7.35;;;1.08;;
36547;SDS011;22551;52.206;4.856;2023-04-24T12:06:05;7.32;;;0.80;;
36547;SDS011;22551;52.206;4.856;2023-04-24T12:11:08;8.57;;;1.30;;
36547;SDS011;22551;52.206;4.856;2023-04-24T12:16:12;8.70;;;1.73;;
36547;SDS011;22551;52.206;4.856;2023-04-24T12:21:16;6.10;;;1.48;;
36547;SDS011;22551;52.206;4.856;2023-04-24T12:26:19;13.25;;;2.38;;
36547;SDS011;22551;52.206;4.856;2023-04-24T12:31:24;7.15;;;1.77;;
36547;SDS011;22551;52.206;4.856;2023-04-24T12:36:29;13.85;;;1.77;;
36547;SDS011;22551;52.206;4.856;2023-04-24T12:41:31;10.50;;;1.83;;
36547;SDS011;22551;52.206;4.856;2023-04-24T12:46:35;10.02;;;1.77;;
36547;SDS011;22551;52.206;4.856;2023-04-24T12:51:37;14.82;;;3.03;;
36547;SDS011;22551;52.206;4.856;2023-04-24T12:56:40;4.07;;;1.67;;
36547;SDS011;22551;52.206;4.856;2023-04-24T13:01:43;11.48;;;1.80;;
36547;SDS011;22551;52.206;4.856;2023-04-24T13:06:46;6.80;;;1.45;;
36547;SDS011;22551;52.206;4.856;2023-04-24T13:11:48;10.55;;;1.30;;
36547;SDS011;22551;52.206;4.856;2023-04-24T13:16:52;6.93;;;1.90;;
36547;SDS011;22551;52.206;4.856;2023-04-24T13:21:55;8.45;;;1.75;;
36547;SDS011;22551;52.206;4.856;2023-04-24T13:26:59;7.05;;;1.30;;
36547;SDS011;22551;52.206;4.856;2023-04-24T13:32:03;9.98;;;2.03;;
36547;SDS011;22551;52.206;4.856;2023-04-24T13:37:06;12.40;;;1.90;;
36547;SDS011;22551;52.206;4.856;2023-04-24T13:42:09;10.00;;;1.98;;
36547;SDS011;22551;52.206;4.856;2023-04-24T13:47:13;6.30;;;1.85;;
36547;SDS011;22551;52.206;4.856;2023-04-24T13:52:15;10.32;;;2.00;;
36547;SDS011;22551;52.206;4.856;2023-04-24T13:57:17;9.93;;;2.85;;
36547;SDS011;22551;52.206;4.856;2023-04-24T14:02:24;9.93;;;2.38;;
36547;SDS011;22551;52.206;4.856;2023-04-24T14:07:27;6.07;;;1.75;;
36547;SDS011;22551;52.206;4.856;2023-04-24T14:12:30;10.85;;;2.20;;
36547;SDS011;22551;52.206;4.856;2023-04-24T14:17:34;7.25;;;2.38;;
36547;SDS011;22551;52.206;4.856;2023-04-24T14:22:36;13.43;;;3.38;;
36547;SDS011;22551;52.206;4.856;2023-04-24T14:27:39;10.02;;;2.50;;
36547;SDS011;22551;52.206;4.856;2023-04-24T14:32:42;9.48;;;1.80;;
36547;SDS011;22551;52.206;4.856;2023-04-24T14:37:52;8.15;;;2.47;;
36547;SDS011;22551;52.206;4.856;2023-04-24T14:43:09;8.27;;;2.15;;
36547;SDS011;22551;52.206;4.856;2023-04-24T14:48:16;9.80;;;2.50;;
36547;SDS011;22551;52.206;4.856;2023-04-24T14:53:27;6.88;;;2.20;;
36547;SDS011;22551;52.206;4.856;2023-04-24T14:58:51;10.00;;;2.70;;
36547;SDS011;22551;52.206;4.856;2023-04-24T15:04:13;10.43;;;2.00;;
36547;SDS011;22551;52.206;4.856;2023-04-24T15:09:49;5.97;;;1.98;;
36547;SDS011;22551;52.206;4.856;2023-04-24T15:14:52;9.77;;;2.33;;
36547;SDS011;22551;52.206;4.856;2023-04-24T15:19:57;9.15;;;2.00;;
36547;SDS011;22551;52.206;4.856;2023-04-24T15:30:04;9.43;;;2.50;;
36547;SDS011;22551;52.206;4.856;2023-04-24T15:41:23;8.93;;;2.08;;
36547;SDS011;22551;52.206;4.856;2023-04-24T15:46:26;9.32;;;2.40;;
36547;SDS011;22551;52.206;4.856;2023-04-24T15:51:30;12.40;;;2.10;;
36547;SDS011;22551;52.206;4.856;2023-04-24T16:01:36;14.40;;;2.85;;
36547;SDS011;22551;52.206;4.856;2023-04-24T16:06:51;8.75;;;3.10;;
36547;SDS011;22551;52.206;4.856;2023-04-24T16:13:16;9.18;;;2.42;;
36547;SDS011;22551;52.206;4.856;2023-04-24T16:18:21;11.63;;;2.90;;
36547;SDS011;22551;52.206;4.856;2023-04-24T16:23:26;8.07;;;2.03;;
36547;SDS011;22551;52.206;4.856;2023-04-24T16:28:29;7.13;;;1.95;;
36547;SDS011;22551;52.206;4.856;2023-04-24T16:33:31;11.52;;;3.00;;
36547;SDS011;22551;52.206;4.856;2023-04-24T16:38:35;9.32;;;2.40;;
36547;SDS011;22551;52.206;4.856;2023-04-24T16:43:41;5.55;;;1.75;;
36547;SDS011;22551;52.206;4.856;2023-04-24T16:48:43;10.65;;;2.30;;
36547;SDS011;22551;52.206;4.856;2023-04-24T16:53:48;15.77;;;2.78;;
36547;SDS011;22551;52.206;4.856;2023-04-24T16:58:50;11.35;;;2.13;;
36547;SDS011;22551;52.206;4.856;2023-04-24T17:03:55;13.30;;;2.53;;
36547;SDS011;22551;52.206;4.856;2023-04-24T17:08:58;12.05;;;3.00;;
36547;SDS011;22551;52.206;4.856;2023-04-24T17:14:01;9.00;;;1.90;;
36547;SDS011;22551;52.206;4.856;2023-04-24T17:19:05;7.18;;;2.53;;
36547;SDS011;22551;52.206;4.856;2023-04-24T17:24:09;8.98;;;1.60;;
36547;SDS011;22551;52.206;4.856;2023-04-24T17:29:14;7.13;;;1.55;;
36547;SDS011;22551;52.206;4.856;2023-04-24T17:34:29;5.60;;;1.73;;
36547;SDS011;22551;52.206;4.856;2023-04-24T17:39:57;8.88;;;2.22;;
36547;SDS011;22551;52.206;4.856;2023-04-24T17:45:40;14.13;;;2.53;;
36547;SDS011;22551;52.206;4.856;2023-04-24T17:50:42;14.57;;;2.10;;
36547;SDS011;22551;52.206;4.856;2023-04-24T17:55:47;10.50;;;2.20;;
36547;SDS011;22551;52.206;4.856;2023-04-24T18:00:50;9.30;;;1.88;;
36547;SDS011;22551;52.206;4.856;2023-04-24T18:05:53;7.65;;;1.33;;
36547;SDS011;22551;52.206;4.856;2023-04-24T18:11:01;5.95;;;1.33;;
36547;SDS011;22551;52.206;4.856;2023-04-24T18:16:07;3.13;;;1.17;;
36547;SDS011;22551;52.206;4.856;2023-04-24T18:21:12;4.78;;;1.23;;
36547;SDS011;22551;52.206;4.856;2023-04-24T18:26:17;2.63;;;1.10;;
36547;SDS011;22551;52.206;4.856;2023-04-24T18:31:25;3.63;;;0.90;;
36547;SDS011;22551;52.206;4.856;2023-04-24T18:36:27;3.15;;;0.93;;
36547;SDS011;22551;52.206;4.856;2023-04-24T18:41:31;8.75;;;0.90;;
36547;SDS011;22551;52.206;4.856;2023-04-24T18:46:39;3.92;;;0.77;;
36547;SDS011;22551;52.206;4.856;2023-04-24T18:51:46;5.50;;;0.88;;
36547;SDS011;22551;52.206;4.856;2023-04-24T18:56:50;11.52;;;0.70;;
36547;SDS011;22551;52.206;4.856;2023-04-24T19:01:52;2.88;;;0.38;;
36547;SDS011;22551;52.206;4.856;2023-04-24T19:06:58;11.65;;;0.60;;
36547;SDS011;22551;52.206;4.856;2023-04-24T19:12:13;3.60;;;0.65;;
36547;SDS011;22551;52.206;4.856;2023-04-24T19:17:18;6.53;;;0.68;;
36547;SDS011;22551;52.206;4.856;2023-04-24T19:22:26;4.75;;;0.70;;
36547;SDS011;22551;52.206;4.856;2023-04-24T19:27:38;2.28;;;1.15;;
36547;SDS011;22551;52.206;4.856;2023-04-24T19:32:50;7.40;;;1.35;;
36547;SDS011;22551;52.206;4.856;2023-04-24T19:37:52;1.35;;;0.60;;
36547;SDS011;22551;52.206;4.856;2023-04-24T19:43:07;4.28;;;0.90;;
36547;SDS011;22551;52.206;4.856;2023-04-24T19:48:30;3.88;;;1.05;;
36547;SDS011;22551;52.206;4.856;2023-04-24T19:53:32;8.77;;;1.52;;
36547;SDS011;22551;52.206;4.856;2023-04-24T19:59:14;5.03;;;1.20;;
36547;SDS011;22551;52.206;4.856;2023-04-24T20:04:33;2.88;;;0.80;;
36547;SDS011;22551;52.206;4.856;2023-04-24T20:21:08;2.45;;;0.47;;
36547;SDS011;22551;52.206;4.856;2023-04-24T20:26:40;3.08;;;0.60;;
36547;SDS011;22551;52.206;4.856;2023-04-24T20:32:04;7.75;;;0.73;;
36547;SDS011;22551;52.206;4.856;2023-04-24T20:37:06;4.13;;;1.05;;
36547;SDS011;22551;52.206;4.856;2023-04-24T20:42:19;6.35;;;1.27;;
36547;SDS011;22551;52.206;4.856;2023-04-24T20:47:28;3.78;;;0.93;;
36547;SDS011;22551;52.206;4.856;2023-04-24T20:52:31;5.38;;;0.73;;
36547;SDS011;22551;52.206;4.856;2023-04-24T20:57:33;4.60;;;0.80;;
36547;SDS011;22551;52.206;4.856;2023-04-24T21:02:58;2.95;;;0.85;;
36547;SDS011;22551;52.206;4.856;2023-04-24T21:08:01;8.25;;;0.98;;
36547;SDS011;22551;52.206;4.856;2023-04-24T21:13:03;8.30;;;1.08;;
36547;SDS011;22551;52.206;4.856;2023-04-24T21:18:11;7.88;;;1.20;;
36547;SDS011;22551;52.206;4.856;2023-04-24T21:23:26;6.25;;;1.67;;
36547;SDS011;22551;52.206;4.856;2023-04-24T21:28:29;8.57;;;1.70;;
36547;SDS011;22551;52.206;4.856;2023-04-24T21:33:34;10.80;;;1.92;;
36547;SDS011;22551;52.206;4.856;2023-04-24T21:38:36;8.65;;;1.83;;
36547;SDS011;22551;52.206;4.856;2023-04-24T21:43:39;7.78;;;2.05;;
36547;SDS011;22551;52.206;4.856;2023-04-24T21:48:51;8.07;;;1.85;;
36547;SDS011;22551;52.206;4.856;2023-04-24T21:53:56;8.23;;;2.53;;
36547;SDS011;22551;52.206;4.856;2023-04-24T21:59:16;7.88;;;2.22;;
36547;SDS011;22551;52.206;4.856;2023-04-24T22:04:20;9.27;;;1.98;;
36547;SDS011;22551;52.206;4.856;2023-04-24T22:09:23;11.23;;;2.17;;
36547;SDS011;22551;52.206;4.856;2023-04-24T22:14:28;12.45;;;2.42;;
36547;SDS011;22551;52.206;4.856;2023-04-24T22:25:12;9.07;;;1.90;;
36547;SDS011;22551;52.206;4.856;2023-04-24T22:30:36;3.20;;;1.70;;
36547;SDS011;22551;52.206;4.856;2023-04-24T22:36:02;7.70;;;2.00;;
36547;SDS011;22551;52.206;4.856;2023-04-24T22:41:06;9.75;;;2.45;;
36547;SDS011;22551;52.206;4.856;2023-04-24T22:46:17;6.63;;;1.30;;
36547;SDS011;22551;52.206;4.856;2023-04-24T22:51:25;5.47;;;1.58;;
36547;SDS011;22551;52.206;4.856;2023-04-24T22:56:32;6.38;;;1.65;;
36547;SDS011;22551;52.206;4.856;2023-04-24T23:01:42;7.68;;;2.38;;
36547;SDS011;22551;52.206;4.856;2023-04-24T23:06:57;9.47;;;2.10;;
36547;SDS011;22551;52.206;4.856;2023-04-24T23:12:02;7.80;;;2.20;;
36547;SDS011;22551;52.206;4.856;2023-04-24T23:17:11;6.72;;;1.80;;
36547;SDS011;22551;52.206;4.856;2023-04-24T23:22:26;11.05;;;2.88;;
36547;SDS011;22551;52.206;4.856;2023-04-24T23:27:39;10.27;;;2.60;;
36547;SDS011;22551;52.206;4.856;2023-04-24T23:32:42;12.50;;;2.20;;
36547;SDS011;22551;52.206;4.856;2023-04-24T23:37:56;8.55;;;1.70;;
36547;SDS011;22551;52.206;4.856;2023-04-24T23:43:15;6.05;;;1.58;;
36547;SDS011;22551;52.206;4.856;2023-04-24T23:48:29;24.20;;;2.60;;
36547;SDS011;22551;52.206;4.856;2023-04-24T23:58:41;5.95;;;1.42;;
